createdAt,value
2018-04-01T00:02:13.325Z,19.90
2018-04-01T00:04:41.223Z,19.90
2018-04-01T00:07:09.159Z,20.77
2018-04-01T00:09:37.046Z,20.37
2018-04-01T00:12:04.937Z,19.83
2018-04-01T00:14:32.877Z,20.07
2018-04-01T00:17:00.769Z,20.33
2018-04-01T00:19:28.669Z,19.57
2018-04-01T00:21:56.636Z,19.93
2018-04-01T00:24:24.534Z,21.07
2018-04-01T00:26:52.430Z,21.10
2018-04-01T00:29:20.365Z,20.93
2018-04-01T00:31:48.263Z,21.17
2018-04-01T00:34:16.153Z,21.30
2018-04-01T00:36:44.093Z,20.27
2018-04-01T00:39:12.007Z,23.00
2018-04-01T00:41:39.904Z,22.70
2018-04-01T00:44:07.850Z,22.03
2018-04-01T00:46:35.761Z,23.77
2018-04-01T00:49:03.657Z,24.13
2018-04-01T00:51:31.605Z,24.23
2018-04-01T00:53:59.506Z,25.17
2018-04-01T00:56:27.412Z,23.40
2018-04-01T00:58:55.349Z,22.20
2018-04-01T01:01:23.244Z,20.23
2018-04-01T01:03:51.141Z,21.43
2018-04-01T01:06:19.233Z,22.00
2018-04-01T01:08:47.137Z,27.10
2018-04-01T01:11:15.025Z,25.33
2018-04-01T01:13:42.970Z,26.97
2018-04-01T01:16:10.857Z,27.17
2018-04-01T01:18:38.749Z,24.70
2018-04-01T01:21:06.685Z,26.53
2018-04-01T01:23:34.587Z,27.57
2018-04-01T01:26:02.474Z,29.43
2018-04-01T01:28:30.432Z,31.17
2018-04-01T01:30:58.326Z,31.93
2018-04-01T01:33:26.221Z,30.73
2018-04-01T01:35:54.185Z,28.20
2018-04-01T01:38:22.078Z,28.50
2018-04-01T01:40:49.977Z,31.27
2018-04-01T01:43:17.901Z,30.87
2018-04-01T01:45:45.797Z,32.30
2018-04-01T01:48:13.694Z,32.23
2018-04-01T01:50:41.645Z,32.10
2018-04-01T01:53:09.537Z,30.93
2018-04-01T01:55:37.442Z,31.70
2018-04-01T01:58:05.400Z,30.73
2018-04-01T02:00:33.293Z,31.10
2018-04-01T02:03:01.184Z,28.00
2018-04-01T02:05:29.233Z,28.07
2018-04-01T02:07:57.129Z,28.93
2018-04-01T02:10:25.026Z,27.33
2018-04-01T02:12:52.963Z,26.27
2018-04-01T02:15:20.853Z,24.97
2018-04-01T02:17:48.758Z,25.00
2018-04-01T02:20:16.690Z,24.73
2018-04-01T02:22:44.591Z,25.73
2018-04-01T02:25:12.502Z,25.13
2018-04-01T02:27:40.446Z,26.30
2018-04-01T02:30:08.347Z,26.77
2018-04-01T02:32:36.239Z,26.10
2018-04-01T02:35:04.203Z,26.03
2018-04-01T02:37:32.114Z,25.47
2018-04-01T02:40:00.014Z,25.20
2018-04-01T02:42:27.966Z,25.97
2018-04-01T02:44:55.863Z,24.67
2018-04-01T02:47:23.757Z,22.23
2018-04-01T02:49:51.731Z,23.93
2018-04-01T02:52:19.633Z,22.97
2018-04-01T02:54:47.534Z,23.80
2018-04-01T02:57:15.475Z,23.27
2018-04-01T02:59:43.382Z,23.30
2018-04-01T03:02:11.284Z,23.63
2018-04-01T03:04:39.268Z,22.87
2018-04-01T03:07:07.147Z,23.93
2018-04-01T03:09:35.055Z,24.30
2018-04-01T03:12:03.014Z,26.33
2018-04-01T03:14:30.938Z,27.57
2018-04-01T03:16:58.833Z,28.57
2018-04-01T03:19:26.777Z,28.40
2018-04-01T03:21:54.665Z,29.13
2018-04-01T03:24:22.558Z,27.17
2018-04-01T03:26:50.488Z,29.37
2018-04-01T03:29:18.381Z,28.67
2018-04-01T03:31:46.276Z,29.83
2018-04-01T03:34:14.211Z,30.17
2018-04-01T03:36:42.112Z,31.93
2018-04-01T03:39:10.010Z,34.43
2018-04-01T03:41:38.198Z,31.63
2018-04-01T03:44:06.094Z,31.90
2018-04-01T03:46:33.991Z,32.93
2018-04-01T03:49:01.933Z,31.73
2018-04-01T03:51:29.826Z,35.00
2018-04-01T03:53:57.718Z,31.43
2018-04-01T03:56:25.650Z,32.93
2018-04-01T03:58:53.542Z,33.00
2018-04-01T04:01:21.438Z,33.03
2018-04-01T04:03:49.577Z,34.63
2018-04-01T04:06:17.499Z,35.57
2018-04-01T04:08:45.415Z,34.20
2018-04-01T04:11:13.370Z,31.90
2018-04-01T04:13:41.261Z,32.20
2018-04-01T04:16:09.154Z,32.33
2018-04-01T04:18:37.097Z,32.73
2018-04-01T04:21:04.991Z,32.33
2018-04-01T04:23:32.889Z,31.23
2018-04-01T04:26:00.830Z,31.70
2018-04-01T04:28:28.725Z,30.90
2018-04-01T04:30:56.617Z,31.57
2018-04-01T04:33:24.558Z,34.03
2018-04-01T04:35:52.450Z,33.73
2018-04-01T04:38:20.337Z,33.83
2018-04-01T04:40:48.537Z,31.33
2018-04-01T04:43:16.438Z,29.83
2018-04-01T04:45:44.336Z,29.17
2018-04-01T04:48:12.273Z,31.47
2018-04-01T04:50:40.166Z,30.73
2018-04-01T04:53:08.058Z,31.83
2018-04-01T04:55:36.022Z,29.93
2018-04-01T04:58:03.913Z,32.37
2018-04-01T05:00:31.811Z,30.00
2018-04-01T05:02:59.756Z,29.77
2018-04-01T05:05:27.650Z,27.73
2018-04-01T05:07:55.557Z,30.53
2018-04-01T05:10:23.506Z,28.83
2018-04-01T05:12:51.397Z,29.70
2018-04-01T05:15:19.313Z,29.80
2018-04-01T05:17:47.242Z,30.50
2018-04-01T05:20:15.148Z,30.50
2018-04-01T05:22:43.078Z,28.87
2018-04-01T05:25:11.009Z,30.40
2018-04-01T05:27:38.902Z,30.83
2018-04-01T05:30:06.802Z,30.77
2018-04-01T05:32:34.747Z,30.20
2018-04-01T05:35:02.639Z,30.57
2018-04-01T05:37:30.539Z,31.77
2018-04-01T05:39:58.465Z,30.90
2018-04-01T05:42:26.357Z,30.90
2018-04-01T05:44:54.254Z,32.73
2018-04-01T05:47:22.189Z,31.47
2018-04-01T05:49:50.085Z,30.70
2018-04-01T05:52:17.975Z,34.10
2018-04-01T05:54:45.905Z,34.43
2018-04-01T05:57:13.798Z,32.97
2018-04-01T05:59:41.694Z,33.00
2018-04-01T06:02:09.634Z,28.43
2018-04-01T06:04:37.531Z,27.13
2018-04-01T06:07:05.432Z,26.63
2018-04-01T06:09:33.378Z,25.27
2018-04-01T06:12:01.286Z,25.00
2018-04-01T06:14:29.193Z,23.57
2018-04-01T06:16:57.125Z,21.40
2018-04-01T06:19:25.023Z,22.00
2018-04-01T06:21:52.914Z,22.30
2018-04-01T06:24:20.863Z,21.83
2018-04-01T06:26:48.758Z,22.07
2018-04-01T06:29:16.646Z,21.20
2018-04-01T06:31:44.590Z,20.37
2018-04-01T06:34:12.486Z,20.60
2018-04-01T06:36:40.373Z,20.87
2018-04-01T06:39:08.324Z,21.13
2018-04-01T06:41:36.236Z,19.87
2018-04-01T06:44:04.125Z,20.90
2018-04-01T06:46:32.066Z,19.70
2018-04-01T06:48:59.962Z,19.83
2018-04-01T06:51:27.853Z,20.43
2018-04-01T06:53:55.785Z,19.33
2018-04-01T06:56:23.682Z,18.30
2018-04-01T06:58:51.574Z,20.37
2018-04-01T07:01:19.517Z,18.40
2018-04-01T07:03:47.414Z,18.93
2018-04-01T07:06:15.321Z,17.03
2018-04-01T07:08:43.274Z,16.83
2018-04-01T07:11:11.170Z,16.27
2018-04-01T07:13:39.062Z,16.53
2018-04-01T07:16:07.014Z,17.47
2018-04-01T07:18:34.910Z,17.17
2018-04-01T07:21:02.803Z,17.47
2018-04-01T07:23:30.745Z,17.37
2018-04-01T07:25:58.645Z,17.53
2018-04-01T07:28:26.542Z,17.47
2018-04-01T07:30:54.489Z,17.23
2018-04-01T07:33:22.386Z,17.27
2018-04-01T07:35:50.326Z,17.53
2018-04-01T07:38:18.261Z,17.30
2018-04-01T07:40:46.154Z,18.37
2018-04-01T07:43:14.049Z,18.07
2018-04-01T07:45:41.989Z,17.97
2018-04-01T07:48:09.887Z,16.87
2018-04-01T07:50:37.777Z,17.13
2018-04-01T07:53:05.749Z,17.60
2018-04-01T07:55:33.647Z,18.57
2018-04-01T07:58:01.542Z,16.83
2018-04-01T08:00:29.475Z,18.03
2018-04-01T08:02:57.368Z,17.57
2018-04-01T08:05:25.258Z,17.43
2018-04-01T08:07:53.195Z,17.97
2018-04-01T08:10:21.090Z,18.07
2018-04-01T08:12:48.982Z,17.80
2018-04-01T08:15:16.914Z,17.13
2018-04-01T08:17:44.813Z,17.83
2018-04-01T08:20:12.727Z,18.23
2018-04-01T08:22:40.694Z,17.53
2018-04-01T08:25:08.586Z,17.40
2018-04-01T08:27:36.473Z,17.33
2018-04-01T08:30:04.430Z,16.27
2018-04-01T08:32:32.322Z,16.43
2018-04-01T08:35:00.215Z,17.57
2018-04-01T08:37:28.149Z,18.47
2018-04-01T08:39:56.069Z,18.43
2018-04-01T08:42:23.975Z,18.53
2018-04-01T08:44:51.921Z,18.17
2018-04-01T08:47:19.812Z,17.13
2018-04-01T08:49:47.700Z,17.83
2018-04-01T08:52:15.634Z,17.20
2018-04-01T08:54:43.537Z,18.20
2018-04-01T08:57:11.426Z,16.73
2018-04-01T08:59:39.382Z,17.37
2018-04-01T09:02:07.277Z,17.23
2018-04-01T09:04:35.166Z,18.23
2018-04-01T09:07:03.104Z,17.37
2018-04-01T09:09:31.002Z,16.53
2018-04-01T09:11:58.893Z,17.27
2018-04-01T09:14:26.851Z,16.13
2018-04-01T09:16:54.820Z,16.63
2018-04-01T09:19:22.694Z,16.03
2018-04-01T09:21:50.630Z,16.30
2018-04-01T09:24:18.525Z,16.17
2018-04-01T09:26:46.434Z,15.97
2018-04-01T09:29:14.378Z,15.70
2018-04-01T09:31:42.283Z,14.13
2018-04-01T09:34:10.202Z,15.73
2018-04-01T09:36:38.137Z,15.43
2018-04-01T09:39:06.026Z,15.00
2018-04-01T09:41:33.957Z,15.00
2018-04-01T09:44:02.107Z,14.97
2018-04-01T09:46:29.978Z,15.70
2018-04-01T09:48:57.869Z,14.03
2018-04-01T09:51:25.821Z,14.77
2018-04-01T09:53:53.723Z,14.33
2018-04-01T09:56:21.621Z,14.30
2018-04-01T09:58:49.557Z,14.77
2018-04-01T10:01:18.007Z,14.00
2018-04-01T10:03:46.450Z,14.00
2018-04-01T10:06:14.946Z,13.80
2018-04-01T10:08:43.381Z,13.70
2018-04-01T10:11:11.822Z,14.33
2018-04-01T10:13:40.298Z,14.23
2018-04-01T10:16:08.735Z,13.57
2018-04-01T10:18:37.174Z,15.33
2018-04-01T10:21:05.672Z,13.57
2018-04-01T10:23:34.120Z,13.33
2018-04-01T10:26:02.553Z,13.10
2018-04-01T10:28:31.041Z,13.63
2018-04-01T10:30:59.497Z,14.37
2018-04-01T10:33:27.930Z,13.17
2018-04-01T10:35:56.645Z,13.93
2018-04-01T10:38:25.086Z,12.90
2018-04-01T10:40:53.526Z,12.50
2018-04-01T10:43:22.045Z,13.37
2018-04-01T10:45:50.499Z,13.50
2018-04-01T10:48:18.934Z,12.73
2018-04-01T10:50:47.426Z,13.07
2018-04-01T10:53:15.882Z,12.33
2018-04-01T10:55:43.778Z,11.90
2018-04-01T10:58:11.728Z,13.23
2018-04-01T11:00:39.617Z,13.00
2018-04-01T11:03:07.514Z,13.33
2018-04-01T11:05:35.461Z,13.10
2018-04-01T11:08:03.366Z,12.67
2018-04-01T11:10:31.265Z,15.80
2018-04-01T11:12:59.272Z,11.33
2018-04-01T11:15:27.161Z,11.37
2018-04-01T11:17:55.062Z,11.43
2018-04-01T11:20:23.013Z,11.33
2018-04-01T11:22:50.907Z,10.90
2018-04-01T11:25:18.822Z,10.90
2018-04-01T11:27:46.765Z,10.87
2018-04-01T11:30:14.659Z,11.33
2018-04-01T11:32:42.551Z,10.83
2018-04-01T11:35:10.487Z,11.23
2018-04-01T11:37:38.381Z,10.87
2018-04-01T11:40:06.293Z,11.93
2018-04-01T11:42:34.225Z,11.13
2018-04-01T11:45:02.119Z,13.10
2018-04-01T11:47:30.009Z,12.77
2018-04-01T11:49:57.961Z,11.93
2018-04-01T11:52:25.863Z,12.07
2018-04-01T11:54:53.761Z,12.47
2018-04-01T11:57:21.702Z,12.27
2018-04-01T11:59:49.597Z,13.23
2018-04-01T12:02:17.490Z,12.17
2018-04-01T12:04:45.438Z,11.07
2018-04-01T12:07:13.330Z,10.97
2018-04-01T12:09:41.229Z,10.63
2018-04-01T12:12:09.165Z,11.43
2018-04-01T12:14:37.063Z,12.97
2018-04-01T12:17:04.954Z,12.20
2018-04-01T12:19:32.885Z,11.73
2018-04-01T12:22:00.774Z,12.10
2018-04-01T12:24:28.667Z,11.83
2018-04-01T12:26:56.624Z,12.20
2018-04-01T12:29:24.527Z,10.90
2018-04-01T12:31:52.417Z,10.30
2018-04-01T12:34:20.370Z,10.53
2018-04-01T12:36:48.258Z,10.33
2018-04-01T12:39:16.162Z,11.27
2018-04-01T12:41:44.101Z,10.63
2018-04-01T12:44:11.996Z,10.87
2018-04-01T12:46:39.886Z,11.13
2018-04-01T12:49:07.830Z,10.80
2018-04-01T12:51:35.722Z,11.67
2018-04-01T12:54:03.618Z,11.00
2018-04-01T12:56:31.565Z,11.60
2018-04-01T12:58:59.489Z,13.07
2018-04-01T13:01:27.383Z,12.67
2018-04-01T13:03:55.322Z,13.17
2018-04-01T13:06:23.221Z,12.30
2018-04-01T13:08:51.150Z,13.13
2018-04-01T13:11:19.122Z,13.80
2018-04-01T13:13:47.015Z,13.47
2018-04-01T13:16:14.906Z,14.83
2018-04-01T13:18:42.916Z,13.57
2018-04-01T13:21:10.782Z,13.03
2018-04-01T13:23:38.676Z,14.03
2018-04-01T13:26:06.607Z,14.03
2018-04-01T13:28:34.507Z,14.50
2018-04-01T13:31:02.405Z,15.00
2018-04-01T13:33:30.335Z,14.53
2018-04-01T13:35:58.226Z,15.33
2018-04-01T13:38:26.122Z,15.57
2018-04-01T13:40:54.060Z,16.63
2018-04-01T13:43:21.953Z,16.47
2018-04-01T13:45:49.855Z,17.67
2018-04-01T13:48:17.786Z,18.43
2018-04-01T13:50:45.682Z,18.60
2018-04-01T13:53:13.577Z,19.43
2018-04-01T13:55:41.533Z,20.13
2018-04-01T13:58:09.433Z,20.40
2018-04-01T14:00:37.321Z,20.07
2018-04-01T14:03:05.254Z,20.30
2018-04-01T14:05:33.154Z,20.60
2018-04-01T14:08:01.049Z,20.10
2018-04-01T14:10:29.230Z,20.80
2018-04-01T14:12:57.126Z,19.03
2018-04-01T14:15:25.040Z,17.13
2018-04-01T14:17:52.978Z,17.47
2018-04-01T14:20:20.872Z,17.37
2018-04-01T14:22:48.762Z,16.47
2018-04-01T14:25:16.701Z,17.47
2018-04-01T14:27:44.612Z,16.77
2018-04-01T14:30:12.516Z,17.30
2018-04-01T14:32:40.453Z,17.20
2018-04-01T14:35:08.345Z,16.70
2018-04-01T14:37:36.245Z,14.77
2018-04-01T14:40:04.178Z,14.73
2018-04-01T14:42:32.085Z,13.70
2018-04-01T14:44:59.977Z,14.57
2018-04-01T14:47:27.917Z,14.43
2018-04-01T14:49:55.813Z,12.50
2018-04-01T14:52:23.712Z,12.33
2018-04-01T14:54:51.654Z,12.97
2018-04-01T14:57:19.542Z,13.03
2018-04-01T14:59:47.443Z,12.73
2018-04-01T15:02:15.402Z,12.83
2018-04-01T15:04:43.297Z,12.33
2018-04-01T15:07:11.195Z,12.63
2018-04-01T15:09:39.130Z,11.70
2018-04-01T15:12:07.018Z,12.07
2018-04-01T15:14:34.911Z,12.10
2018-04-01T15:17:02.843Z,11.53
2018-04-01T15:19:30.742Z,11.50
2018-04-01T15:21:58.681Z,12.23
2018-04-01T15:24:26.609Z,13.80
2018-04-01T15:26:54.498Z,12.03
2018-04-01T15:29:22.397Z,12.07
2018-04-01T15:31:50.355Z,12.77
2018-04-01T15:34:18.254Z,13.63
2018-04-01T15:36:46.142Z,13.23
2018-04-01T15:39:14.095Z,13.73
2018-04-01T15:41:41.993Z,15.43
2018-04-01T15:44:09.887Z,15.00
2018-04-01T15:46:37.842Z,16.13
2018-04-01T15:49:05.734Z,16.13
2018-04-01T15:51:33.638Z,16.13
2018-04-01T15:54:01.573Z,16.90
2018-04-01T15:56:29.465Z,15.77
2018-04-01T15:58:57.363Z,16.27
2018-04-01T16:01:25.306Z,15.73
2018-04-01T16:03:53.259Z,16.43
2018-04-01T16:06:21.154Z,15.30
2018-04-01T16:08:49.086Z,16.20
2018-04-01T16:11:16.986Z,15.37
2018-04-01T16:13:44.877Z,16.00
2018-04-01T16:16:12.799Z,15.63
2018-04-01T16:18:40.697Z,16.50
2018-04-01T16:21:08.590Z,15.40
2018-04-01T16:23:36.525Z,15.13
2018-04-01T16:26:04.408Z,15.20
2018-04-01T16:28:32.282Z,14.87
2018-04-01T16:31:00.218Z,15.17
2018-04-01T16:33:28.142Z,14.23
2018-04-01T16:35:56.038Z,15.37
2018-04-01T16:38:23.960Z,15.57
2018-04-01T16:40:51.837Z,14.47
2018-04-01T16:43:19.727Z,14.50
2018-04-01T16:45:47.686Z,15.00
2018-04-01T16:48:15.582Z,13.87
2018-04-01T16:50:43.480Z,14.20
2018-04-01T16:53:11.430Z,14.17
2018-04-01T16:55:39.326Z,13.87
2018-04-01T16:58:07.213Z,14.30
2018-04-01T17:00:35.166Z,13.63
2018-04-01T17:03:03.050Z,13.50
2018-04-01T17:05:30.935Z,14.80
2018-04-01T17:07:58.856Z,15.10
2018-04-01T17:10:26.729Z,14.07
2018-04-01T17:12:54.619Z,14.30
2018-04-01T17:15:22.673Z,13.97
2018-04-01T17:17:50.549Z,15.03
2018-04-01T17:20:18.496Z,14.60
2018-04-01T17:22:46.520Z,13.97
2018-04-01T17:25:14.431Z,15.17
2018-04-01T17:27:42.362Z,14.57
2018-04-01T17:30:10.433Z,15.00
2018-04-01T17:32:38.311Z,14.83
2018-04-01T17:35:06.205Z,14.33
2018-04-01T17:37:34.129Z,13.87
2018-04-01T17:40:02.023Z,15.00
2018-04-01T17:42:29.904Z,15.73
2018-04-01T17:44:57.838Z,15.30
2018-04-01T17:47:25.714Z,15.80
2018-04-01T17:49:53.590Z,15.03
2018-04-01T17:52:21.534Z,14.80
2018-04-01T17:54:49.392Z,15.57
2018-04-01T17:57:17.277Z,15.23
2018-04-01T17:59:45.209Z,17.10
2018-04-01T18:02:13.089Z,20.50
2018-04-01T18:04:40.978Z,24.37
2018-04-01T18:07:08.885Z,28.20
2018-04-01T18:09:36.768Z,22.63
2018-04-01T18:12:04.654Z,20.17
2018-04-01T18:14:32.585Z,17.47
2018-04-01T18:17:00.458Z,18.40
2018-04-01T18:19:28.394Z,16.97
2018-04-01T18:21:56.362Z,15.73
2018-04-01T18:24:24.249Z,15.80
2018-04-01T18:26:52.113Z,17.10
2018-04-01T18:29:20.022Z,16.80
2018-04-01T18:31:47.914Z,16.40
2018-04-01T18:34:15.777Z,16.10
2018-04-01T18:36:43.681Z,18.20
2018-04-01T18:39:11.550Z,20.90
2018-04-01T18:41:39.423Z,32.10
2018-04-01T18:44:07.353Z,51.50
2018-04-01T18:46:35.227Z,62.10
2018-04-01T18:49:03.123Z,60.57
2018-04-01T18:51:31.053Z,76.20
2018-04-01T18:53:58.921Z,73.17
2018-04-01T18:56:26.790Z,57.97
2018-04-01T18:58:54.734Z,46.17
2018-04-01T19:01:22.606Z,28.77
2018-04-01T19:03:50.478Z,26.23
2018-04-01T19:06:18.422Z,26.40
2018-04-01T19:08:46.318Z,37.20
2018-04-01T19:11:14.198Z,30.50
2018-04-01T19:13:42.111Z,35.03
2018-04-01T19:16:10.525Z,38.20
2018-04-01T19:18:38.945Z,49.63
2018-04-01T19:21:07.418Z,45.27
2018-04-01T19:23:35.851Z,54.43
2018-04-01T19:26:04.269Z,48.97
2018-04-01T19:28:32.770Z,66.33
2018-04-01T19:31:01.214Z,65.47
2018-04-01T19:33:29.660Z,54.37
2018-04-01T19:35:58.145Z,68.47
2018-04-01T19:38:26.599Z,80.30
2018-04-01T19:40:55.036Z,88.63
2018-04-01T19:43:23.538Z,84.83
2018-04-01T19:45:52.002Z,78.00
2018-04-01T19:48:20.826Z,65.13
2018-04-01T19:50:49.309Z,58.90
2018-04-01T19:53:17.967Z,48.70
2018-04-01T19:55:46.402Z,45.17
2018-04-01T19:58:14.891Z,48.03
2018-04-01T20:00:43.325Z,39.37
2018-04-01T20:03:11.762Z,37.40
2018-04-01T20:05:40.406Z,36.77
2018-04-01T20:08:08.899Z,36.83
2018-04-01T20:10:37.330Z,34.50
2018-04-01T20:13:05.938Z,35.07
2018-04-01T20:15:34.369Z,38.93
2018-04-01T20:18:02.809Z,37.47
2018-04-01T20:20:31.328Z,35.00
2018-04-01T20:23:00.126Z,30.83
2018-04-01T20:25:28.561Z,30.10
2018-04-01T20:27:57.052Z,29.90
2018-04-01T20:30:25.486Z,29.43
2018-04-01T20:32:53.917Z,28.70
2018-04-01T20:35:22.405Z,27.67
2018-04-01T20:37:50.842Z,28.70
2018-04-01T20:40:19.285Z,29.07
2018-04-01T20:42:47.782Z,27.27
2018-04-01T20:45:16.217Z,25.20
2018-04-01T20:47:44.650Z,26.13
2018-04-01T20:50:13.162Z,25.87
2018-04-01T20:52:41.602Z,28.37
2018-04-01T20:55:10.042Z,28.90
2018-04-01T20:57:38.525Z,28.53
2018-04-01T21:00:06.961Z,30.13
2018-04-01T21:02:35.398Z,32.73
2018-04-01T21:05:03.913Z,31.87
2018-04-01T21:07:32.367Z,33.13
2018-04-01T21:10:00.806Z,34.17
2018-04-01T21:12:29.334Z,33.07
2018-04-01T21:14:57.770Z,30.93
2018-04-01T21:17:26.205Z,27.37
2018-04-01T21:19:54.689Z,27.00
2018-04-01T21:22:23.130Z,25.73
2018-04-01T21:24:51.574Z,25.63
2018-04-01T21:27:20.053Z,25.23
2018-04-01T21:29:48.492Z,25.10
2018-04-01T21:32:16.945Z,24.97
2018-04-01T21:34:45.438Z,24.57
2018-04-01T21:37:13.893Z,25.33
2018-04-01T21:39:42.325Z,21.93
2018-04-01T21:42:10.809Z,23.93
2018-04-01T21:44:39.258Z,24.20
2018-04-01T21:47:07.730Z,22.60
2018-04-01T21:49:36.214Z,23.87
2018-04-01T21:52:04.662Z,23.13
2018-04-01T21:54:33.102Z,24.10
2018-04-01T21:57:01.582Z,23.83
2018-04-01T21:59:30.028Z,23.70
2018-04-01T22:01:58.463Z,25.60
2018-04-01T22:04:26.934Z,24.20
2018-04-01T22:06:55.357Z,24.83
2018-04-01T22:09:23.796Z,25.10
2018-04-01T22:11:52.258Z,25.70
2018-04-01T22:14:20.682Z,24.23
2018-04-01T22:16:49.089Z,25.67
2018-04-01T22:19:17.542Z,27.07
2018-04-01T22:21:45.973Z,27.60
2018-04-01T22:24:14.394Z,27.13
2018-04-01T22:26:42.881Z,27.23
2018-04-01T22:29:11.295Z,28.73
2018-04-01T22:31:39.702Z,29.27
2018-04-01T22:34:08.153Z,29.33
2018-04-01T22:36:36.562Z,29.60
2018-04-01T22:39:05.039Z,30.30
2018-04-01T22:41:33.511Z,31.27
2018-04-01T22:44:01.946Z,30.47
2018-04-01T22:46:30.438Z,32.60
2018-04-01T22:48:58.885Z,31.97
2018-04-01T22:51:27.306Z,30.93
2018-04-01T22:53:55.701Z,29.80
2018-04-01T22:56:24.190Z,28.23
2018-04-01T22:58:52.654Z,29.33
2018-04-01T23:01:21.097Z,29.57
2018-04-01T23:03:49.566Z,30.47
2018-04-01T23:06:17.978Z,29.30
2018-04-01T23:08:46.394Z,29.03
2018-04-01T23:11:14.867Z,28.73
2018-04-01T23:13:43.282Z,30.27
2018-04-01T23:16:11.693Z,29.30
2018-04-01T23:18:40.138Z,28.80
2018-04-01T23:21:08.547Z,30.13
2018-04-01T23:23:37.000Z,27.73
2018-04-01T23:26:05.426Z,27.73
2018-04-01T23:28:33.874Z,30.30
2018-04-01T23:31:02.294Z,29.77
2018-04-01T23:33:30.865Z,29.50
2018-04-01T23:35:59.282Z,29.07
2018-04-01T23:38:27.690Z,29.63
2018-04-01T23:40:57.082Z,27.37
2018-04-01T23:43:25.493Z,29.90
2018-04-01T23:45:53.905Z,28.30
2018-04-01T23:48:22.403Z,27.80
2018-04-01T23:50:50.844Z,28.47
2018-04-01T23:53:19.278Z,27.43
2018-04-01T23:55:47.737Z,28.43
2018-04-01T23:58:16.154Z,28.43
